sensor_id;sensor_type;location;lat;lon;timestamp;pressure;altitude;pressure_sealevel;temperature;humidity
74218;BME280;62579;47.288;18.646;2024-01-27T00:01:10;100441.56;;;6.77;100.00
74218;BME280;62579;47.288;18.646;2024-01-27T00:03:36;100447.28;;;6.70;100.00
74218;BME280;62579;47.288;18.646;2024-01-27T00:06:02;100452.69;;;6.70;100.00
74218;BME280;62579;47.288;18.646;2024-01-27T00:08:27;100445.81;;;6.69;100.00
74218;BME280;62579;47.288;18.646;2024-01-27T00:10:52;100450.91;;;6.67;100.00
74218;BME280;62579;47.288;18.646;2024-01-27T00:13:18;100447.63;;;6.63;100.00
74218;BME280;62579;47.288;18.646;2024-01-27T00:15:43;100462.94;;;6.57;100.00
74218;BME280;62579;47.288;18.646;2024-01-27T00:18:08;100467.44;;;6.51;100.00
74218;BME280;62579;47.288;18.646;2024-01-27T00:20:34;100463.41;;;6.55;98.73
74218;BME280;62579;47.288;18.646;2024-01-27T00:22:59;100469.09;;;6.48;100.00
74218;BME280;62579;47.288;18.646;2024-01-27T00:25:25;100452.88;;;6.48;100.00
74218;BME280;62579;47.288;18.646;2024-01-27T00:27:50;100458.75;;;6.47;99.99
74218;BME280;62579;47.288;18.646;2024-01-27T00:30:15;100456.53;;;6.45;100.00
74218;BME280;62579;47.288;18.646;2024-01-27T00:32:41;100470.19;;;6.42;100.00
74218;BME280;62579;47.288;18.646;2024-01-27T00:35:07;100478.47;;;6.29;100.00
74218;BME280;62579;47.288;18.646;2024-01-27T00:37:33;100462.53;;;6.22;100.00
74218;BME280;62579;47.288;18.646;2024-01-27T00:39:59;100467.19;;;6.31;100.00
74218;BME280;62579;47.288;18.646;2024-01-27T00:42:24;100480.56;;;6.34;100.00
74218;BME280;62579;47.288;18.646;2024-01-27T00:44:50;100478.44;;;6.47;98.79
74218;BME280;62579;47.288;18.646;2024-01-27T00:47:15;100502.16;;;6.43;99.10
74218;BME280;62579;47.288;18.646;2024-01-27T00:49:41;100497.97;;;6.33;99.76
74218;BME280;62579;47.288;18.646;2024-01-27T00:52:06;100517.63;;;6.25;100.00
74218;BME280;62579;47.288;18.646;2024-01-27T00:54:31;100517.03;;;6.12;100.00
74218;BME280;62579;47.288;18.646;2024-01-27T00:56:57;100522.72;;;6.14;100.00
74218;BME280;62579;47.288;18.646;2024-01-27T00:59:22;100512.97;;;6.16;100.00
74218;BME280;62579;47.288;18.646;2024-01-27T01:01:47;100511.31;;;6.10;100.00
74218;BME280;62579;47.288;18.646;2024-01-27T01:04:13;100535.50;;;6.22;100.00
74218;BME280;62579;47.288;18.646;2024-01-27T01:06:40;100514.16;;;6.24;100.00
74218;BME280;62579;47.288;18.646;2024-01-27T01:09:05;100529.34;;;6.31;100.00
74218;BME280;62579;47.288;18.646;2024-01-27T01:11:30;100533.25;;;6.30;100.00
74218;BME280;62579;47.288;18.646;2024-01-27T01:13:56;100509.09;;;6.26;100.00
74218;BME280;62579;47.288;18.646;2024-01-27T01:16:21;100517.50;;;6.37;100.00
74218;BME280;62579;47.288;18.646;2024-01-27T01:18:46;100519.59;;;6.33;99.83
74218;BME280;62579;47.288;18.646;2024-01-27T01:21:12;100543.94;;;6.42;99.10
74218;BME280;62579;47.288;18.646;2024-01-27T01:23:37;100501.56;;;6.39;99.01
74218;BME280;62579;47.288;18.646;2024-01-27T01:26:03;100517.94;;;6.45;98.06
74218;BME280;62579;47.288;18.646;2024-01-27T01:28:28;100523.50;;;6.41;97.68
74218;BME280;62579;47.288;18.646;2024-01-27T01:30:54;100509.69;;;6.39;97.67
74218;BME280;62579;47.288;18.646;2024-01-27T01:33:19;100500.19;;;6.35;95.72
74218;BME280;62579;47.288;18.646;2024-01-27T01:35:45;100516.28;;;6.38;94.25
74218;BME280;62579;47.288;18.646;2024-01-27T01:38:10;100517.19;;;6.35;93.72
74218;BME280;62579;47.288;18.646;2024-01-27T01:40:36;100525.28;;;6.35;93.63
74218;BME280;62579;47.288;18.646;2024-01-27T01:43:01;100557.28;;;6.28;93.33
74218;BME280;62579;47.288;18.646;2024-01-27T01:45:28;100544.50;;;6.19;93.94
74218;BME280;62579;47.288;18.646;2024-01-27T01:47:54;100564.31;;;6.16;93.93
74218;BME280;62579;47.288;18.646;2024-01-27T01:50:20;100549.28;;;6.06;94.19
74218;BME280;62579;47.288;18.646;2024-01-27T01:52:48;100540.12;;;6.03;93.34
74218;BME280;62579;47.288;18.646;2024-01-27T01:55:13;100572.53;;;6.03;92.33
74218;BME280;62579;47.288;18.646;2024-01-27T01:57:39;100577.03;;;5.97;93.65
74218;BME280;62579;47.288;18.646;2024-01-27T02:00:05;100576.69;;;5.86;93.41
74218;BME280;62579;47.288;18.646;2024-01-27T02:02:31;100571.31;;;5.95;92.36
74218;BME280;62579;47.288;18.646;2024-01-27T02:04:56;100586.78;;;5.86;92.87
74218;BME280;62579;47.288;18.646;2024-01-27T02:07:22;100580.09;;;5.78;92.34
74218;BME280;62579;47.288;18.646;2024-01-27T02:09:47;100602.69;;;5.93;91.13
74218;BME280;62579;47.288;18.646;2024-01-27T02:12:12;100597.97;;;5.84;92.62
74218;BME280;62579;47.288;18.646;2024-01-27T02:14:38;100608.59;;;5.79;91.59
74218;BME280;62579;47.288;18.646;2024-01-27T02:17:03;100613.72;;;5.77;90.64
74218;BME280;62579;47.288;18.646;2024-01-27T02:19:29;100623.75;;;5.76;89.28
74218;BME280;62579;47.288;18.646;2024-01-27T02:21:55;100603.66;;;5.77;89.55
74218;BME280;62579;47.288;18.646;2024-01-27T02:24:20;100604.47;;;5.87;88.92
74218;BME280;62579;47.288;18.646;2024-01-27T02:26:45;100645.06;;;5.74;88.30
74218;BME280;62579;47.288;18.646;2024-01-27T02:29:11;100613.22;;;5.69;88.74
74218;BME280;62579;47.288;18.646;2024-01-27T02:31:36;100619.69;;;5.72;88.86
74218;BME280;62579;47.288;18.646;2024-01-27T02:34:02;100617.13;;;5.68;88.65
74218;BME280;62579;47.288;18.646;2024-01-27T02:36:27;100621.56;;;5.62;89.11
74218;BME280;62579;47.288;18.646;2024-01-27T02:38:52;100633.84;;;5.54;89.87
74218;BME280;62579;47.288;18.646;2024-01-27T02:41:18;100634.22;;;5.43;90.67
74218;BME280;62579;47.288;18.646;2024-01-27T02:43:43;100633.81;;;5.45;90.70
74218;BME280;62579;47.288;18.646;2024-01-27T02:46:12;100632.56;;;5.37;91.75
74218;BME280;62579;47.288;18.646;2024-01-27T02:48:44;100645.56;;;5.29;92.41
74218;BME280;62579;47.288;18.646;2024-01-27T02:51:10;100650.44;;;5.22;93.54
74218;BME280;62579;47.288;18.646;2024-01-27T02:53:35;100644.16;;;5.25;93.92
74218;BME280;62579;47.288;18.646;2024-01-27T02:56:01;100661.78;;;5.17;94.90
74218;BME280;62579;47.288;18.646;2024-01-27T02:58:26;100649.63;;;5.12;95.93
74218;BME280;62579;47.288;18.646;2024-01-27T03:00:52;100656.28;;;5.20;95.55
74218;BME280;62579;47.288;18.646;2024-01-27T03:03:17;100655.72;;;5.25;95.67
74218;BME280;62579;47.288;18.646;2024-01-27T03:05:42;100656.94;;;5.24;95.97
74218;BME280;62579;47.288;18.646;2024-01-27T03:08:08;100657.03;;;5.21;96.77
74218;BME280;62579;47.288;18.646;2024-01-27T03:10:33;100659.84;;;5.17;97.22
74218;BME280;62579;47.288;18.646;2024-01-27T03:12:58;100679.81;;;5.20;97.22
74218;BME280;62579;47.288;18.646;2024-01-27T03:15:24;100669.88;;;5.17;97.52
74218;BME280;62579;47.288;18.646;2024-01-27T03:17:49;100689.41;;;5.21;97.65
74218;BME280;62579;47.288;18.646;2024-01-27T03:20:14;100685.00;;;5.14;98.40
74218;BME280;62579;47.288;18.646;2024-01-27T03:22:40;100702.63;;;5.06;98.93
74218;BME280;62579;47.288;18.646;2024-01-27T03:25:07;100694.69;;;5.03;99.07
74218;BME280;62579;47.288;18.646;2024-01-27T03:27:32;100706.34;;;5.00;99.26
74218;BME280;62579;47.288;18.646;2024-01-27T03:30:01;100700.94;;;5.00;99.22
74218;BME280;62579;47.288;18.646;2024-01-27T03:32:27;100702.00;;;5.02;98.46
74218;BME280;62579;47.288;18.646;2024-01-27T03:34:52;100697.03;;;5.01;98.38
74218;BME280;62579;47.288;18.646;2024-01-27T03:37:18;100715.94;;;5.01;98.01
74218;BME280;62579;47.288;18.646;2024-01-27T03:39:43;100707.59;;;5.08;96.23
74218;BME280;62579;47.288;18.646;2024-01-27T03:42:08;100718.50;;;5.04;95.94
74218;BME280;62579;47.288;18.646;2024-01-27T03:44:34;100723.03;;;5.07;95.38
74218;BME280;62579;47.288;18.646;2024-01-27T03:46:59;100724.78;;;5.01;95.53
74218;BME280;62579;47.288;18.646;2024-01-27T03:49:24;100717.34;;;4.93;95.96
74218;BME280;62579;47.288;18.646;2024-01-27T03:51:50;100728.13;;;4.93;95.87
74218;BME280;62579;47.288;18.646;2024-01-27T03:54:15;100740.25;;;4.88;95.64
74218;BME280;62579;47.288;18.646;2024-01-27T03:56:41;100730.22;;;4.89;95.65
74218;BME280;62579;47.288;18.646;2024-01-27T03:59:06;100735.09;;;4.81;96.40
74218;BME280;62579;47.288;18.646;2024-01-27T04:01:34;100746.59;;;4.81;96.10
74218;BME280;62579;47.288;18.646;2024-01-27T04:04:00;100743.19;;;4.81;96.52
74218;BME280;62579;47.288;18.646;2024-01-27T04:06:25;100747.16;;;4.76;96.10
74218;BME280;62579;47.288;18.646;2024-01-27T04:08:50;100765.09;;;4.70;96.91
74218;BME280;62579;47.288;18.646;2024-01-27T04:11:19;100777.38;;;4.84;95.95
74218;BME280;62579;47.288;18.646;2024-01-27T04:13:47;100774.78;;;4.80;95.98
74218;BME280;62579;47.288;18.646;2024-01-27T04:16:12;100803.06;;;4.76;96.22
74218;BME280;62579;47.288;18.646;2024-01-27T04:18:39;100790.75;;;4.75;96.46
74218;BME280;62579;47.288;18.646;2024-01-27T04:21:04;100791.81;;;4.77;96.08
74218;BME280;62579;47.288;18.646;2024-01-27T04:23:29;100798.06;;;4.74;96.19
74218;BME280;62579;47.288;18.646;2024-01-27T04:25:55;100821.59;;;4.74;95.91
74218;BME280;62579;47.288;18.646;2024-01-27T04:28:21;100807.13;;;4.80;95.81
74218;BME280;62579;47.288;18.646;2024-01-27T04:30:46;100804.22;;;4.75;96.12
74218;BME280;62579;47.288;18.646;2024-01-27T04:33:12;100799.37;;;4.70;95.93
74218;BME280;62579;47.288;18.646;2024-01-27T04:35:38;100802.28;;;4.75;94.82
74218;BME280;62579;47.288;18.646;2024-01-27T04:38:03;100806.47;;;4.76;94.64
74218;BME280;62579;47.288;18.646;2024-01-27T04:40:29;100827.09;;;4.70;95.11
74218;BME280;62579;47.288;18.646;2024-01-27T04:42:54;100829.47;;;4.68;95.28
74218;BME280;62579;47.288;18.646;2024-01-27T04:45:19;100826.44;;;4.66;95.46
74218;BME280;62579;47.288;18.646;2024-01-27T04:47:45;100823.53;;;4.61;96.27
74218;BME280;62579;47.288;18.646;2024-01-27T04:50:10;100829.25;;;4.63;95.21
74218;BME280;62579;47.288;18.646;2024-01-27T04:52:35;100841.00;;;4.69;94.24
74218;BME280;62579;47.288;18.646;2024-01-27T04:55:01;100840.03;;;4.63;94.75
74218;BME280;62579;47.288;18.646;2024-01-27T04:57:26;100855.97;;;4.57;94.28
74218;BME280;62579;47.288;18.646;2024-01-27T04:59:52;100867.97;;;4.56;93.44
74218;BME280;62579;47.288;18.646;2024-01-27T05:02:18;100868.06;;;4.65;92.70
74218;BME280;62579;47.288;18.646;2024-01-27T05:04:43;100869.25;;;4.64;91.97
74218;BME280;62579;47.288;18.646;2024-01-27T05:07:08;100853.28;;;4.57;91.32
74218;BME280;62579;47.288;18.646;2024-01-27T05:09:34;100861.81;;;4.56;91.13
74218;BME280;62579;47.288;18.646;2024-01-27T05:12:00;100872.81;;;4.49;91.04
74218;BME280;62579;47.288;18.646;2024-01-27T05:14:25;100863.19;;;4.48;90.45
74218;BME280;62579;47.288;18.646;2024-01-27T05:16:51;100856.72;;;4.45;89.51
74218;BME280;62579;47.288;18.646;2024-01-27T05:19:16;100843.69;;;4.56;88.53
74218;BME280;62579;47.288;18.646;2024-01-27T05:21:43;100890.59;;;4.46;88.67
74218;BME280;62579;47.288;18.646;2024-01-27T05:24:08;100846.94;;;4.51;87.98
74218;BME280;62579;47.288;18.646;2024-01-27T05:26:34;100849.50;;;4.42;87.94
74218;BME280;62579;47.288;18.646;2024-01-27T05:28:59;100839.78;;;4.45;87.91
74218;BME280;62579;47.288;18.646;2024-01-27T05:31:26;100841.00;;;4.44;87.19
74218;BME280;62579;47.288;18.646;2024-01-27T05:33:51;100842.41;;;4.48;86.77
74218;BME280;62579;47.288;18.646;2024-01-27T05:36:17;100834.09;;;4.43;87.24
74218;BME280;62579;47.288;18.646;2024-01-27T05:38:42;100830.72;;;4.39;87.53
74218;BME280;62579;47.288;18.646;2024-01-27T05:41:07;100855.28;;;4.28;88.52
74218;BME280;62579;47.288;18.646;2024-01-27T05:43:33;100844.84;;;4.30;88.32
74218;BME280;62579;47.288;18.646;2024-01-27T05:45:58;100853.16;;;4.36;87.91
74218;BME280;62579;47.288;18.646;2024-01-27T05:48:24;100834.72;;;4.34;88.12
74218;BME280;62579;47.288;18.646;2024-01-27T05:51:00;100842.81;;;4.34;88.91
74218;BME280;62579;47.288;18.646;2024-01-27T05:53:26;100854.56;;;4.28;89.23
74218;BME280;62579;47.288;18.646;2024-01-27T05:55:52;100850.25;;;4.30;89.29
74218;BME280;62579;47.288;18.646;2024-01-27T05:58:21;100844.44;;;4.44;88.11
74218;BME280;62579;47.288;18.646;2024-01-27T06:00:48;100855.28;;;4.28;89.98
74218;BME280;62579;47.288;18.646;2024-01-27T06:03:13;100873.81;;;4.26;90.00
74218;BME280;62579;47.288;18.646;2024-01-27T06:05:40;100872.75;;;4.23;90.39
74218;BME280;62579;47.288;18.646;2024-01-27T06:08:06;100891.69;;;4.20;90.75
74218;BME280;62579;47.288;18.646;2024-01-27T06:10:32;100902.22;;;4.14;91.51
74218;BME280;62579;47.288;18.646;2024-01-27T06:12:57;100902.66;;;4.13;91.71
74218;BME280;62579;47.288;18.646;2024-01-27T06:15:23;100904.59;;;4.12;91.05
74218;BME280;62579;47.288;18.646;2024-01-27T06:17:48;100906.00;;;4.17;91.10
74218;BME280;62579;47.288;18.646;2024-01-27T06:20:13;100919.91;;;4.15;90.56
74218;BME280;62579;47.288;18.646;2024-01-27T06:22:41;100945.78;;;4.13;90.21
74218;BME280;62579;47.288;18.646;2024-01-27T06:25:07;100933.62;;;4.21;89.41
74218;BME280;62579;47.288;18.646;2024-01-27T06:27:33;100940.38;;;4.13;90.07
74218;BME280;62579;47.288;18.646;2024-01-27T06:29:59;100932.53;;;4.18;89.68
74218;BME280;62579;47.288;18.646;2024-01-27T06:32:25;100949.22;;;4.13;89.38
74218;BME280;62579;47.288;18.646;2024-01-27T06:34:50;100952.97;;;4.03;90.17
74218;BME280;62579;47.288;18.646;2024-01-27T06:37:16;100953.03;;;4.00;90.17
74218;BME280;62579;47.288;18.646;2024-01-27T06:39:41;100959.94;;;4.01;88.91
74218;BME280;62579;47.288;18.646;2024-01-27T06:42:06;100961.88;;;4.00;87.84
74218;BME280;62579;47.288;18.646;2024-01-27T06:44:32;100968.78;;;4.01;87.34
74218;BME280;62579;47.288;18.646;2024-01-27T06:46:57;100971.72;;;4.07;87.27
74218;BME280;62579;47.288;18.646;2024-01-27T06:49:22;100961.03;;;4.03;87.12
74218;BME280;62579;47.288;18.646;2024-01-27T06:51:48;100966.16;;;4.14;85.99
74218;BME280;62579;47.288;18.646;2024-01-27T06:54:13;100969.25;;;4.12;86.31
74218;BME280;62579;47.288;18.646;2024-01-27T06:56:38;100964.03;;;4.21;85.08
74218;BME280;62579;47.288;18.646;2024-01-27T06:59:04;100968.75;;;4.17;85.95
74218;BME280;62579;47.288;18.646;2024-01-27T07:01:29;100965.75;;;4.28;85.06
74218;BME280;62579;47.288;18.646;2024-01-27T07:03:54;100964.59;;;4.29;84.99
74218;BME280;62579;47.288;18.646;2024-01-27T07:06:20;100955.97;;;4.34;84.33
74218;BME280;62579;47.288;18.646;2024-01-27T07:08:45;100965.03;;;4.28;85.31
74218;BME280;62579;47.288;18.646;2024-01-27T07:11:10;100968.59;;;4.37;84.91
74218;BME280;62579;47.288;18.646;2024-01-27T07:13:37;100970.62;;;4.33;85.77
74218;BME280;62579;47.288;18.646;2024-01-27T07:16:03;100970.88;;;4.39;85.45
74218;BME280;62579;47.288;18.646;2024-01-27T07:18:28;100968.94;;;4.39;84.89
74218;BME280;62579;47.288;18.646;2024-01-27T07:20:54;100975.41;;;4.42;85.40
74218;BME280;62579;47.288;18.646;2024-01-27T07:23:20;100966.16;;;4.43;84.49
74218;BME280;62579;47.288;18.646;2024-01-27T07:25:45;100980.72;;;4.45;84.50
74218;BME280;62579;47.288;18.646;2024-01-27T07:28:11;100982.03;;;4.53;83.81
74218;BME280;62579;47.288;18.646;2024-01-27T07:30:37;100982.34;;;4.55;83.96
74218;BME280;62579;47.288;18.646;2024-01-27T07:33:03;100983.03;;;4.59;84.12
74218;BME280;62579;47.288;18.646;2024-01-27T07:35:28;100984.09;;;4.62;84.57
74218;BME280;62579;47.288;18.646;2024-01-27T07:37:54;100992.97;;;4.62;84.71
74218;BME280;62579;47.288;18.646;2024-01-27T07:40:19;100994.28;;;4.70;83.98
74218;BME280;62579;47.288;18.646;2024-01-27T07:42:45;100980.69;;;4.74;84.14
74218;BME280;62579;47.288;18.646;2024-01-27T07:45:10;100985.22;;;4.77;84.89
74218;BME280;62579;47.288;18.646;2024-01-27T07:47:36;100991.69;;;4.79;83.57
74218;BME280;62579;47.288;18.646;2024-01-27T07:50:01;101004.62;;;4.84;81.67
74218;BME280;62579;47.288;18.646;2024-01-27T07:52:26;101026.13;;;4.88;83.25
74218;BME280;62579;47.288;18.646;2024-01-27T07:54:52;101004.88;;;4.90;83.29
74218;BME280;62579;47.288;18.646;2024-01-27T07:57:17;101004.47;;;4.92;84.23
74218;BME280;62579;47.288;18.646;2024-01-27T07:59:43;101013.88;;;5.00;83.01
74218;BME280;62579;47.288;18.646;2024-01-27T08:02:08;101010.41;;;4.99;83.06
74218;BME280;62579;47.288;18.646;2024-01-27T08:04:33;101007.94;;;5.05;82.09
74218;BME280;62579;47.288;18.646;2024-01-27T08:06:59;101014.94;;;5.02;82.95
74218;BME280;62579;47.288;18.646;2024-01-27T08:09:25;101015.16;;;5.08;81.35
74218;BME280;62579;47.288;18.646;2024-01-27T08:11:51;101026.38;;;5.06;81.61
74218;BME280;62579;47.288;18.646;2024-01-27T08:14:18;101013.09;;;5.12;82.77
74218;BME280;62579;47.288;18.646;2024-01-27T08:16:43;101033.06;;;5.14;81.92
74218;BME280;62579;47.288;18.646;2024-01-27T08:19:08;101031.13;;;5.15;82.40
74218;BME280;62579;47.288;18.646;2024-01-27T08:21:34;101031.81;;;5.19;82.88
74218;BME280;62579;47.288;18.646;2024-01-27T08:23:59;101031.47;;;5.17;81.92
74218;BME280;62579;47.288;18.646;2024-01-27T08:26:24;101041.63;;;5.25;82.30
74218;BME280;62579;47.288;18.646;2024-01-27T08:28:50;101045.53;;;5.24;81.39
74218;BME280;62579;47.288;18.646;2024-01-27T08:31:15;101052.00;;;5.27;81.63
74218;BME280;62579;47.288;18.646;2024-01-27T08:33:41;101048.41;;;5.30;81.56
74218;BME280;62579;47.288;18.646;2024-01-27T08:36:06;101046.38;;;5.34;80.83
74218;BME280;62579;47.288;18.646;2024-01-27T08:38:32;101052.88;;;5.36;81.90
74218;BME280;62579;47.288;18.646;2024-01-27T08:40:57;101058.25;;;5.36;80.27
74218;BME280;62579;47.288;18.646;2024-01-27T08:43:22;101059.66;;;5.41;81.18
74218;BME280;62579;47.288;18.646;2024-01-27T08:45:48;101064.09;;;5.47;80.56
74218;BME280;62579;47.288;18.646;2024-01-27T08:48:13;101061.41;;;5.47;79.73
74218;BME280;62579;47.288;18.646;2024-01-27T08:50:39;101064.88;;;5.48;80.64
74218;BME280;62579;47.288;18.646;2024-01-27T08:53:05;101069.81;;;5.50;79.72
74218;BME280;62579;47.288;18.646;2024-01-27T08:55:30;101061.84;;;5.59;82.04
74218;BME280;62579;47.288;18.646;2024-01-27T08:57:56;101078.38;;;5.61;79.45
74218;BME280;62579;47.288;18.646;2024-01-27T09:00:22;101067.25;;;5.59;77.65
74218;BME280;62579;47.288;18.646;2024-01-27T09:02:47;101078.91;;;5.68;78.33
74218;BME280;62579;47.288;18.646;2024-01-27T09:05:13;101081.59;;;5.68;77.16
74218;BME280;62579;47.288;18.646;2024-01-27T09:07:38;101080.09;;;5.67;77.85
74218;BME280;62579;47.288;18.646;2024-01-27T09:10:04;101072.75;;;5.68;78.32
74218;BME280;62579;47.288;18.646;2024-01-27T09:12:30;101068.22;;;5.77;78.59
74218;BME280;62579;47.288;18.646;2024-01-27T09:14:55;101065.41;;;5.81;76.51
74218;BME280;62579;47.288;18.646;2024-01-27T09:17:21;101097.94;;;5.77;76.16
74218;BME280;62579;47.288;18.646;2024-01-27T09:19:46;101091.91;;;5.86;78.40
74218;BME280;62579;47.288;18.646;2024-01-27T09:22:11;101105.94;;;5.81;77.19
74218;BME280;62579;47.288;18.646;2024-01-27T09:24:37;101094.78;;;5.79;73.93
74218;BME280;62579;47.288;18.646;2024-01-27T09:27:02;101110.22;;;5.78;74.35
74218;BME280;62579;47.288;18.646;2024-01-27T09:29:29;101115.13;;;5.83;73.28
74218;BME280;62579;47.288;18.646;2024-01-27T09:31:54;101107.00;;;5.83;75.18
74218;BME280;62579;47.288;18.646;2024-01-27T09:34:19;101101.09;;;5.88;73.76
74218;BME280;62579;47.288;18.646;2024-01-27T09:36:45;101099.75;;;6.05;77.11
74218;BME280;62579;47.288;18.646;2024-01-27T09:39:10;101091.56;;;5.96;74.42
74218;BME280;62579;47.288;18.646;2024-01-27T09:41:36;101100.31;;;6.00;71.86
74218;BME280;62579;47.288;18.646;2024-01-27T09:44:03;101097.50;;;6.04;74.42
74218;BME280;62579;47.288;18.646;2024-01-27T09:46:30;101099.66;;;6.09;72.73
74218;BME280;62579;47.288;18.646;2024-01-27T09:48:56;101098.25;;;6.04;72.20
74218;BME280;62579;47.288;18.646;2024-01-27T09:51:21;101095.88;;;6.07;72.70
74218;BME280;62579;47.288;18.646;2024-01-27T09:53:47;101109.16;;;6.14;74.09
74218;BME280;62579;47.288;18.646;2024-01-27T09:56:13;101104.97;;;6.13;70.23
74218;BME280;62579;47.288;18.646;2024-01-27T09:58:44;101084.63;;;6.21;72.87
74218;BME280;62579;47.288;18.646;2024-01-27T10:01:10;101098.91;;;6.21;71.08
74218;BME280;62579;47.288;18.646;2024-01-27T10:03:36;101087.94;;;6.25;71.77
74218;BME280;62579;47.288;18.646;2024-01-27T10:06:03;101077.78;;;6.29;70.60
74218;BME280;62579;47.288;18.646;2024-01-27T10:08:30;101071.81;;;6.34;73.03
74218;BME280;62579;47.288;18.646;2024-01-27T10:10:56;101082.19;;;6.35;70.86
74218;BME280;62579;47.288;18.646;2024-01-27T10:13:22;101067.28;;;6.31;70.46
74218;BME280;62579;47.288;18.646;2024-01-27T10:16:03;101037.66;;;6.27;69.59
74218;BME280;62579;47.288;18.646;2024-01-27T10:18:29;101086.72;;;6.38;68.77
74218;BME280;62579;47.288;18.646;2024-01-27T10:20:55;101052.34;;;6.39;72.45
74218;BME280;62579;47.288;18.646;2024-01-27T10:23:20;101069.00;;;6.37;70.23
74218;BME280;62579;47.288;18.646;2024-01-27T10:25:46;101056.78;;;6.33;70.58
74218;BME280;62579;47.288;18.646;2024-01-27T10:28:11;101059.81;;;6.35;70.11
74218;BME280;62579;47.288;18.646;2024-01-27T10:30:37;101060.25;;;6.33;67.95
74218;BME280;62579;47.288;18.646;2024-01-27T10:33:03;101064.84;;;6.24;67.17
74218;BME280;62579;47.288;18.646;2024-01-27T10:35:29;101086.84;;;6.35;69.98
74218;BME280;62579;47.288;18.646;2024-01-27T10:37:55;101060.69;;;6.32;67.85
74218;BME280;62579;47.288;18.646;2024-01-27T10:40:21;101057.66;;;6.30;68.89
74218;BME280;62579;47.288;18.646;2024-01-27T10:43:03;101065.78;;;6.30;67.61
74218;BME280;62579;47.288;18.646;2024-01-27T10:45:39;101049.88;;;6.32;68.13
74218;BME280;62579;47.288;18.646;2024-01-27T10:48:07;101057.03;;;6.26;68.92
74218;BME280;62579;47.288;18.646;2024-01-27T10:50:37;101056.47;;;6.31;69.55
74218;BME280;62579;47.288;18.646;2024-01-27T10:53:04;101076.38;;;6.37;69.80
74218;BME280;62579;47.288;18.646;2024-01-27T10:55:36;101061.06;;;6.43;69.38
74218;BME280;62579;47.288;18.646;2024-01-27T10:58:03;101060.09;;;6.49;70.82
74218;BME280;62579;47.288;18.646;2024-01-27T11:00:29;101065.00;;;6.42;71.88
74218;BME280;62579;47.288;18.646;2024-01-27T11:02:59;101065.50;;;6.49;71.16
74218;BME280;62579;47.288;18.646;2024-01-27T11:05:24;101096.31;;;6.52;69.39
74218;BME280;62579;47.288;18.646;2024-01-27T11:07:50;101088.44;;;6.45;71.46
74218;BME280;62579;47.288;18.646;2024-01-27T11:10:17;101080.44;;;6.41;69.22
74218;BME280;62579;47.288;18.646;2024-01-27T11:12:42;101076.44;;;6.46;70.65
74218;BME280;62579;47.288;18.646;2024-01-27T11:15:08;101108.25;;;6.42;69.35
74218;BME280;62579;47.288;18.646;2024-01-27T11:17:40;101100.56;;;6.40;69.45
74218;BME280;62579;47.288;18.646;2024-01-27T11:20:08;101097.63;;;6.47;70.82
74218;BME280;62579;47.288;18.646;2024-01-27T11:22:34;101078.06;;;6.43;70.01
74218;BME280;62579;47.288;18.646;2024-01-27T11:27:38;101071.88;;;6.43;69.85
74218;BME280;62579;47.288;18.646;2024-01-27T11:30:04;101093.22;;;6.41;68.58
74218;BME280;62579;47.288;18.646;2024-01-27T11:32:30;101083.81;;;6.45;68.29
74218;BME280;62579;47.288;18.646;2024-01-27T11:34:56;101092.59;;;6.37;69.38
74218;BME280;62579;47.288;18.646;2024-01-27T11:37:22;101106.09;;;6.37;70.06
74218;BME280;62579;47.288;18.646;2024-01-27T11:39:51;101119.06;;;6.42;68.09
74218;BME280;62579;47.288;18.646;2024-01-27T11:42:16;101110.75;;;6.36;66.59
74218;BME280;62579;47.288;18.646;2024-01-27T11:44:43;101121.31;;;6.43;70.20
74218;BME280;62579;47.288;18.646;2024-01-27T11:47:16;101140.81;;;6.38;69.58
74218;BME280;62579;47.288;18.646;2024-01-27T11:49:42;101156.47;;;6.43;69.63
74218;BME280;62579;47.288;18.646;2024-01-27T11:52:08;101148.03;;;6.41;69.68
74218;BME280;62579;47.288;18.646;2024-01-27T11:54:33;101136.69;;;6.46;69.19
74218;BME280;62579;47.288;18.646;2024-01-27T11:56:58;101137.66;;;6.52;69.62
74218;BME280;62579;47.288;18.646;2024-01-27T11:59:24;101169.09;;;6.59;69.30
74218;BME280;62579;47.288;18.646;2024-01-27T12:01:49;101161.16;;;6.77;70.58
74218;BME280;62579;47.288;18.646;2024-01-27T12:04:18;101168.22;;;6.75;68.80
74218;BME280;62579;47.288;18.646;2024-01-27T12:06:43;101165.91;;;6.86;68.79
74218;BME280;62579;47.288;18.646;2024-01-27T12:09:09;101167.44;;;6.74;67.62
74218;BME280;62579;47.288;18.646;2024-01-27T12:11:38;101165.16;;;6.85;66.81
74218;BME280;62579;47.288;18.646;2024-01-27T12:14:05;101163.81;;;6.90;67.58
74218;BME280;62579;47.288;18.646;2024-01-27T12:16:31;101168.44;;;6.68;67.57
74218;BME280;62579;47.288;18.646;2024-01-27T12:18:57;101167.66;;;6.67;70.31
74218;BME280;62579;47.288;18.646;2024-01-27T12:21:22;101152.66;;;6.66;69.16
74218;BME280;62579;47.288;18.646;2024-01-27T12:23:53;101143.16;;;6.61;68.29
74218;BME280;62579;47.288;18.646;2024-01-27T12:26:25;101139.63;;;6.39;69.18
74218;BME280;62579;47.288;18.646;2024-01-27T12:28:51;101139.06;;;6.44;70.36
74218;BME280;62579;47.288;18.646;2024-01-27T12:31:16;101137.69;;;6.27;69.14
74218;BME280;62579;47.288;18.646;2024-01-27T12:33:49;101157.88;;;6.35;69.09
74218;BME280;62579;47.288;18.646;2024-01-27T12:36:17;101151.41;;;6.33;69.38
74218;BME280;62579;47.288;18.646;2024-01-27T12:38:45;101146.88;;;6.42;69.04
74218;BME280;62579;47.288;18.646;2024-01-27T12:41:11;101154.31;;;6.38;68.72
74218;BME280;62579;47.288;18.646;2024-01-27T12:43:36;101159.37;;;6.49;68.79
74218;BME280;62579;47.288;18.646;2024-01-27T12:46:01;101158.31;;;6.46;67.86